Time;durP1;ratioP1;P1;durP2;ratioP2;P2;SDS_P1;SDS_P2;PMS_P1;PMS_P2;Temp;Humidity;BMP_temperature;BMP_pressure;BME280_temperature;BME280_humidity;BME280_pressure;Samples;Min_cycle;Max_cycle;Signal;HPM_P1;HPM_P2
2023/02/23 00:04:25;;;;;;;3.33;2.60;;;;;;;9.32;100.00;97940.72;15273562;19;20010;-50
2023/02/23 00:09:51;;;;;;;2.97;2.42;;;;;;;9.37;100.00;97946.44;15269553;19;20475;-49
2023/02/23 00:15:20;;;;;;;3.15;2.50;;;;;;;9.35;100.00;97945.78;15271361;19;20039;-52
2023/02/23 00:20:47;;;;;;;2.85;2.53;;;;;;;9.32;100.00;97943.41;15269103;19;20278;-50
2023/02/23 00:26:19;;;;;;;2.67;2.45;;;;;;;9.35;100.00;97937.72;15262614;19;20014;-50
2023/02/23 00:31:48;;;;;;;2.70;2.50;;;;;;;9.39;100.00;97931.84;15269782;19;20347;-49
2023/02/23 00:37:13;;;;;;;3.85;2.78;;;;;;;9.37;100.00;97935.69;15264378;19;20183;-49
2023/02/23 00:42:39;;;;;;;2.95;2.45;;;;;;;9.32;100.00;97932.66;15270101;19;20025;-52
2023/02/23 00:48:09;;;;;;;5.47;2.72;;;;;;;9.29;100.00;97946.41;15270895;19;20015;-50
2023/02/23 00:53:34;;;;;;;3.40;2.50;;;;;;;9.24;100.00;97942.38;15271361;19;20028;-49
2023/02/23 00:58:58;;;;;;;2.60;2.40;;;;;;;9.23;100.00;97939.84;15257747;19;20018;-50
2023/02/23 01:04:25;;;;;;;2.92;2.65;;;;;;;9.20;100.00;97929.44;15267331;19;20798;-50
2023/02/23 01:09:50;;;;;;;3.20;2.45;;;;;;;9.20;100.00;97941.03;15281140;19;20018;-49
2023/02/23 01:15:15;;;;;;;2.72;2.53;;;;;;;9.21;100.00;97934.66;15280463;19;20018;-52
2023/02/23 01:20:43;;;;;;;3.97;2.80;;;;;;;9.19;100.00;97933.97;15277642;19;20025;-51
2023/02/23 01:26:13;;;;;;;2.85;2.50;;;;;;;9.18;100.00;97932.28;15266900;19;20037;-57
2023/02/23 01:31:38;;;;;;;3.67;3.00;;;;;;;9.15;100.00;97924.56;15276002;19;20021;-56
2023/02/23 01:37:05;;;;;;;3.03;2.45;;;;;;;9.12;100.00;97922.19;15279847;19;20018;-57
2023/02/23 01:42:31;;;;;;;3.78;2.60;;;;;;;9.12;100.00;97924.88;15285536;19;20011;-52
2023/02/23 01:48:00;;;;;;;3.00;2.60;;;;;;;9.12;100.00;97916.81;15277595;19;20010;-53
2023/02/23 01:53:32;;;;;;;3.83;2.75;;;;;;;9.13;100.00;97918.50;15280915;19;20121;-53
2023/02/23 01:58:59;;;;;;;;;;;;;;;9.08;100.00;97920.84;15275975;19;20025;-51
2023/02/23 02:04:24;;;;;;;3.15;2.65;;;;;;;9.07;100.00;97922.69;15280706;19;19931;-54
2023/02/23 02:15:38;;;;;;;3.10;2.80;;;;;;;8.99;100.00;97908.41;15274610;19;20090;-56
2023/02/23 02:21:43;;;;;;;3.92;2.97;;;;;;;8.91;100.00;97910.03;15274515;19;20048;-56
2023/02/23 02:27:36;;;;;;;4.32;2.70;;;;;;;8.90;100.00;97907.53;15275192;19;20027;-54
2023/02/23 02:33:31;;;;;;;3.30;2.97;;;;;;;8.89;100.00;97911.22;15274513;19;20018;-53
2023/02/23 02:39:09;;;;;;;3.13;2.65;;;;;;;8.86;100.00;97907.03;15275386;19;20025;-51
2023/02/23 02:44:42;;;;;;;3.08;2.78;;;;;;;8.84;100.00;97909.03;15275412;19;20026;-55
2023/02/23 02:50:14;;;;;;;2.90;2.58;;;;;;;8.83;100.00;97903.81;15270552;19;20015;-53
2023/02/23 02:55:47;;;;;;;3.10;2.80;;;;;;;8.82;100.00;97911.03;15274925;19;20011;-53
2023/02/23 04:21:17;;;;;;;4.15;3.17;;;;;;;8.06;100.00;97942.13;15264017;19;20121;-56
2023/02/23 04:26:48;;;;;;;4.25;3.33;;;;;;;8.04;100.00;97939.63;15265003;19;20022;-58
2023/02/23 04:32:16;;;;;;;3.33;2.70;;;;;;;8.02;100.00;97937.09;15271065;19;20025;-50
2023/02/23 04:37:43;;;;;;;3.70;3.40;;;;;;;8.03;100.00;97937.94;15265227;19;20015;-53
2023/02/23 04:43:08;;;;;;;3.50;3.20;;;;;;;8.04;100.00;97939.63;15274526;19;20012;-54
2023/02/23 04:48:32;;;;;;;3.72;3.20;;;;;;;8.02;100.00;97942.47;15286755;19;20129;-54
2023/02/23 04:54:01;;;;;;;3.40;3.10;;;;;;;8.01;100.00;97940.78;15285743;19;20026;-57
2023/02/23 04:59:25;;;;;;;4.68;3.33;;;;;;;7.97;100.00;97944.78;15281087;19;20030;-56
2023/02/23 05:04:50;;;;;;;4.72;3.13;;;;;;;7.97;100.00;97950.13;15281065;19;20523;-55
2023/02/23 05:10:19;;;;;;;3.67;3.05;;;;;;;7.97;100.00;97949.31;15286177;19;20031;-54
2023/02/23 05:15:44;;;;;;;3.40;3.00;;;;;;;7.97;100.00;97955.50;15278298;19;20017;-53
2023/02/23 05:21:13;;;;;;;4.43;3.00;;;;;;;7.96;100.00;97958.34;15280476;19;20010;-53
2023/02/23 05:26:40;;;;;;;4.35;3.00;;;;;;;7.93;100.00;97964.88;15279472;19;20018;-54
2023/02/23 05:32:05;;;;;;;3.75;3.15;;;;;;;7.90;100.00;97959.81;15281932;19;20029;-53
2023/02/23 05:37:30;;;;;;;4.47;3.00;;;;;;;7.91;100.00;97956.13;15273696;19;20022;-56
2023/02/23 05:42:57;;;;;;;6.05;3.13;;;;;;;7.90;100.00;97957.13;15281953;19;20345;-56
2023/02/23 05:48:22;;;;;;;3.33;3.03;;;;;;;7.89;100.00;97955.44;15280088;19;20029;-51
2023/02/23 05:53:48;;;;;;;3.97;3.22;;;;;;;7.87;100.00;97970.84;15279380;19;20026;-55
2023/02/23 05:59:16;;;;;;;3.78;2.80;;;;;;;7.89;100.00;97974.22;15277157;19;20046;-54
2023/02/23 06:04:40;;;;;;;3.60;3.25;;;;;;;7.86;100.00;97975.38;15280725;19;20026;-52
2023/02/23 06:10:07;;;;;;;3.78;3.17;;;;;;;7.85;100.00;97979.06;15274168;19;20018;-55
2023/02/23 06:15:38;;;;;;;5.32;3.20;;;;;;;7.86;100.00;97990.63;15278482;19;20118;-55
2023/02/23 06:21:05;;;;;;;3.30;3.00;;;;;;;7.88;100.00;97988.63;15270338;19;20021;-54
2023/02/23 06:26:29;;;;;;;4.00;3.30;;;;;;;7.86;100.00;97994.16;15277685;19;20018;-55
2023/02/23 06:31:58;;;;;;;4.13;3.20;;;;;;;7.85;100.00;97995.16;15279732;19;20032;-54
2023/02/23 06:37:29;;;;;;;4.15;3.13;;;;;;;7.87;100.00;98000.34;15274383;19;20022;-56
2023/02/23 06:42:54;;;;;;;3.67;3.08;;;;;;;7.88;100.00;97996.66;15276534;19;20049;-55
2023/02/23 06:48:21;;;;;;;3.95;3.55;;;;;;;7.91;100.00;97998.19;15278033;19;20047;-55
2023/02/23 06:53:46;;;;;;;3.40;3.10;;;;;;;7.92;100.00;98011.47;15275234;19;20014;-56
2023/02/23 06:59:10;;;;;;;4.13;3.38;;;;;;;7.95;100.00;98015.69;15274898;19;20452;-57
2023/02/23 07:04:38;;;;;;;3.85;3.30;;;;;;;7.97;100.00;98017.19;15273450;19;20044;-57
2023/02/23 07:10:03;;;;;;;3.40;3.10;;;;;;;7.99;100.00;98022.41;15273799;19;20042;-56
2023/02/23 07:15:28;;;;;;;3.58;3.08;;;;;;;8.00;100.00;98024.09;15272581;19;20725;-57
2023/02/23 07:20:55;;;;;;;3.72;3.13;;;;;;;8.05;100.00;98018.28;15275631;19;20019;-53
2023/02/23 07:26:20;;;;;;;4.40;3.35;;;;;;;8.09;100.00;98027.69;15271870;19;20018;-52
2023/02/23 07:31:44;;;;;;;4.78;3.33;;;;;;;8.11;100.00;98023.88;15273146;19;20030;-57
2023/02/23 07:37:13;;;;;;;4.15;3.70;;;;;;;8.15;100.00;98027.91;15271701;19;20670;-57
2023/02/23 07:42:37;;;;;;;4.07;3.53;;;;;;;8.18;100.00;98026.75;15271659;19;20014;-53
2023/02/23 07:48:03;;;;;;;3.92;3.55;;;;;;;8.22;100.00;98016.56;15273262;19;20074;-53
2023/02/23 07:53:31;;;;;;;5.45;3.58;;;;;;;8.25;100.00;98030.50;15272578;19;20015;-51
2023/02/23 07:58:57;;;;;;;3.78;3.42;;;;;;;8.35;100.00;98026.88;15267723;19;20606;-55
2023/02/23 08:04:21;;;;;;;3.90;3.50;;;;;;;8.41;100.00;98027.09;15272492;19;20022;-54
2023/02/23 08:09:49;;;;;;;5.75;3.33;;;;;;;8.53;100.00;98038.44;15268324;19;20052;-53
2023/02/23 08:15:15;;;;;;;3.85;2.88;;;;;;;8.63;100.00;98041.88;15269152;19;20022;-53
2023/02/23 08:20:40;;;;;;;4.05;3.42;;;;;;;8.75;100.00;98038.94;15267825;19;20014;-52
2023/02/23 08:26:14;;;;;;;3.67;3.17;;;;;;;8.88;100.00;98036.63;15271183;19;20014;-55
2023/02/23 08:31:39;;;;;;;3.88;2.90;;;;;;;9.03;100.00;98034.19;15272485;19;20099;-54
2023/02/23 08:37:03;;;;;;;2.95;2.67;;;;;;;9.14;100.00;98037.59;15268657;19;20089;-52
2023/02/23 08:42:30;;;;;;;5.85;2.67;;;;;;;9.23;100.00;98029.38;15264420;19;20019;-58
2023/02/23 08:47:55;;;;;;;4.53;2.95;;;;;;;9.34;100.00;98022.88;15266735;19;20356;-55
2023/02/23 08:53:21;;;;;;;3.35;2.80;;;;;;;9.45;100.00;98029.81;15272489;19;20704;-54
2023/02/23 08:58:51;;;;;;;3.60;2.95;;;;;;;9.59;100.00;98038.22;15266571;19;20086;-55
2023/02/23 09:04:17;;;;;;;4.05;3.17;;;;;;;9.64;100.00;98033.22;15270653;19;20026;-56
2023/02/23 09:09:41;;;;;;;3.33;2.70;;;;;;;9.77;100.00;98030.88;15268692;19;20085;-56
2023/02/23 09:15:10;;;;;;;3.92;2.72;;;;;;;9.92;100.00;98030.25;15267697;19;20086;-54
2023/02/23 09:20:34;;;;;;;4.65;2.63;;;;;;;10.06;100.00;98023.34;15264060;19;20419;-52
2023/02/23 09:25:59;;;;;;;3.53;2.60;;;;;;;10.21;100.00;98027.03;15264060;19;20140;-55
2023/02/23 09:31:28;;;;;;;4.55;2.85;;;;;;;10.33;100.00;98031.09;15279839;19;20340;-56
2023/02/23 09:36:54;;;;;;;3.25;2.90;;;;;;;10.38;100.00;98033.28;15281868;19;20031;-54
2023/02/23 09:42:33;;;;;;;5.25;3.20;;;;;;;10.45;100.00;98031.59;15278360;19;20014;-54
2023/02/23 09:48:13;;;;;;;5.80;3.35;;;;;;;10.56;100.00;98043.03;15279001;19;20018;-52
2023/02/23 09:53:44;;;;;;;3.90;3.45;;;;;;;10.72;100.00;98040.31;15281352;19;20021;-51
2023/02/23 09:59:14;;;;;;;4.60;4.13;;;;;;;10.85;100.00;98037.06;15279040;19;20033;-54
2023/02/23 10:04:48;;;;;;;7.57;6.20;;;;;;;10.98;100.00;98031.16;15276714;19;20018;-56
2023/02/23 10:10:22;;;;;;;9.60;7.47;;;;;;;11.06;100.00;98028.41;15282808;19;20018;-56
2023/02/23 10:15:54;;;;;;;12.18;9.48;;;;;;;11.28;100.00;98025.97;15283131;19;20435;-52
2023/02/23 10:21:29;;;;;;;10.67;9.30;;;;;;;11.39;100.00;98030.16;15277653;19;20122;-52
2023/02/23 10:27:04;;;;;;;10.45;8.43;;;;;;;11.37;100.00;98030.31;15253348;19;20276;-57
2023/02/23 10:32:39;;;;;;;11.30;9.98;;;;;;;11.39;100.00;98022.06;15280899;19;20014;-53
2023/02/23 10:38:08;;;;;;;12.82;10.20;;;;;;;11.47;100.00;98023.84;15273302;19;20669;-56
2023/02/23 10:43:34;;;;;;;14.50;10.65;;;;;;;11.53;100.00;98026.66;15275876;19;20026;-53
2023/02/23 10:49:00;;;;;;;13.70;10.98;;;;;;;11.56;100.00;98017.41;15277416;19;20021;-52
2023/02/23 10:54:46;;;;;;;12.40;10.90;;;;;;;11.48;100.00;98012.03;15277443;19;20372;-53
2023/02/23 11:00:29;;;;;;;13.75;11.43;;;;;;;11.65;100.00;98016.34;15276598;19;20019;-51
2023/02/23 11:05:54;;;;;;;13.77;11.30;;;;;;;11.69;100.00;98006.88;15275577;19;20030;-55
2023/02/23 11:11:33;;;;;;;13.73;10.90;;;;;;;11.63;100.00;97999.47;15271234;19;20014;-53
2023/02/23 11:17:01;;;;;;;12.77;10.93;;;;;;;11.79;100.00;97995.00;15273842;19;20490;-53
2023/02/23 11:22:28;;;;;;;12.10;10.10;;;;;;;11.93;100.00;98001.47;15271278;19;20019;-52
2023/02/23 11:28:02;;;;;;;15.45;10.40;;;;;;;11.97;100.00;97987.41;15271720;19;20014;-49
2023/02/23 11:33:34;;;;;;;12.90;10.68;;;;;;;12.08;100.00;97985.34;15275100;19;20033;-51
2023/02/23 11:39:09;;;;;;;15.90;11.07;;;;;;;12.06;100.00;97987.38;15275862;19;20398;-50
2023/02/23 11:44:37;;;;;;;13.35;10.65;;;;;;;11.95;100.00;97978.66;15268422;19;20022;-51
2023/02/23 11:50:02;;;;;;;12.52;11.00;;;;;;;11.92;100.00;97975.50;15272219;19;20393;-51
2023/02/23 11:55:27;;;;;;;13.68;11.75;;;;;;;11.82;100.00;97973.03;15273758;19;20393;-53
2023/02/23 12:01:03;;;;;;;13.07;11.65;;;;;;;11.91;100.00;97971.97;15274251;19;20011;-52
2023/02/23 12:06:32;;;;;;;13.18;11.77;;;;;;;11.85;100.00;97964.56;15270473;19;20266;-56
2023/02/23 12:12:02;;;;;;;14.30;11.65;;;;;;;11.83;100.00;97966.59;15268195;19;20029;-56
2023/02/23 12:17:35;;;;;;;13.80;11.35;;;;;;;11.88;100.00;97956.94;15266599;19;20479;-52
2023/02/23 12:23:04;;;;;;;15.13;11.75;;;;;;;11.96;100.00;97958.75;15270731;19;20044;-55
2023/02/23 12:28:41;;;;;;;14.27;12.13;;;;;;;11.87;100.00;97959.84;15265500;19;20025;-54
2023/02/23 12:34:15;;;;;;;15.07;12.23;;;;;;;11.85;100.00;97951.94;15269717;19;20014;-53
2023/02/23 12:39:43;;;;;;;14.52;12.07;;;;;;;11.88;100.00;97953.41;15271124;19;20342;-51
2023/02/23 12:45:19;;;;;;;15.30;12.07;;;;;;;11.85;100.00;97940.28;15262623;19;20015;-57
2023/02/23 12:50:51;;;;;;;14.63;12.50;;;;;;;11.91;100.00;97946.81;15272405;19;20401;-55
2023/02/23 12:56:35;;;;;;;15.05;13.18;;;;;;;11.78;100.00;97945.56;15268331;19;20360;-55
2023/02/23 13:02:05;;;;;;;13.82;12.43;;;;;;;11.82;100.00;97949.59;15267142;19;20014;-52
2023/02/23 13:07:44;;;;;;;15.70;12.82;;;;;;;11.74;100.00;97944.25;15280658;19;20011;-52
2023/02/23 13:13:26;;;;;;;15.90;12.68;;;;;;;11.62;100.00;97951.94;15286176;19;20006;-55
2023/02/23 13:19:08;;;;;;;14.95;13.30;;;;;;;11.54;100.00;97943.91;15280458;19;20028;-57
2023/02/23 13:24:41;;;;;;;16.27;13.70;;;;;;;11.59;100.00;97933.38;15278012;19;20014;-57
2023/02/23 13:30:10;;;;;;;15.85;14.15;;;;;;;11.54;100.00;97943.91;15280891;19;20017;-52
2023/02/23 13:35:37;;;;;;;18.25;14.07;;;;;;;11.45;100.00;97939.59;15279068;19;20028;-52
2023/02/23 13:41:18;;;;;;;17.88;14.18;;;;;;;11.33;100.00;97939.13;15281833;19;20021;-52
2023/02/23 13:46:53;;;;;;;18.90;15.50;;;;;;;11.24;100.00;97938.34;15278897;19;20025;-50
2023/02/23 13:52:28;;;;;;;16.98;15.25;;;;;;;11.14;100.00;97941.28;15274082;19;20043;-53
2023/02/23 13:57:56;;;;;;;19.73;15.63;;;;;;;11.10;100.00;97942.63;15273605;19;20023;-50
2023/02/23 14:03:26;;;;;;;17.58;15.77;;;;;;;11.04;100.00;97933.41;15275793;19;20045;-57
2023/02/23 14:08:59;;;;;;;17.50;15.15;;;;;;;10.95;100.00;97943.38;15280980;19;20491;-52
2023/02/23 14:14:43;;;;;;;20.05;16.60;;;;;;;10.80;100.00;97950.53;15275248;19;20020;-53
2023/02/23 14:20:21;;;;;;;20.63;17.55;;;;;;;10.72;100.00;97951.41;15276009;19;20018;-56
2023/02/23 14:25:52;;;;;;;20.73;18.15;;;;;;;10.68;100.00;97952.75;15261185;19;20011;-53
2023/02/23 14:31:29;;;;;;;24.50;19.65;;;;;;;10.65;100.00;97961.16;15278288;19;20074;-53
2023/02/23 14:36:55;;;;;;;24.35;20.60;;;;;;;10.63;100.00;97964.06;15275205;19;20022;-52
2023/02/23 14:42:29;;;;;;;24.35;20.45;;;;;;;10.62;100.00;97967.75;15276278;19;20138;-54
2023/02/23 14:48:01;;;;;;;23.02;19.73;;;;;;;10.63;100.00;97968.63;15270376;19;20437;-52
2023/02/23 14:53:30;;;;;;;24.77;20.40;;;;;;;10.62;100.00;97966.94;15273885;19;20077;-56
2023/02/23 14:58:57;;;;;;;27.25;21.80;;;;;;;10.58;100.00;97971.81;15278524;19;20038;-52
2023/02/23 15:04:26;;;;;;;26.30;21.65;;;;;;;10.56;100.00;97973.84;15273327;19;20014;-53
2023/02/23 15:09:54;;;;;;;26.20;21.23;;;;;;;10.49;100.00;97983.59;15275491;19;20038;-55
2023/02/23 15:15:25;;;;;;;27.42;22.92;;;;;;;10.49;100.00;97975.53;15269043;19;20030;-54
2023/02/23 15:20:53;;;;;;;30.80;24.30;;;;;;;10.46;100.00;97973.19;15268262;19;20237;-51
2023/02/23 15:26:24;;;;;;;30.52;24.38;;;;;;;10.46;100.00;97971.34;15263979;19;20052;-55
2023/02/23 15:31:51;;;;;;;30.53;24.30;;;;;;;10.44;100.00;97970.66;15272468;19;20029;-56
2023/02/23 15:37:24;;;;;;;28.27;23.38;;;;;;;10.44;100.00;97986.81;15267102;19;20078;-58
2023/02/23 15:42:51;;;;;;;32.35;24.83;;;;;;;10.44;100.00;97981.44;15268037;19;20026;-55
2023/02/23 15:48:21;;;;;;;27.60;23.38;;;;;;;10.43;100.00;97987.81;15271197;19;20085;-53
2023/02/23 15:53:50;;;;;;;33.17;25.40;;;;;;;10.41;100.00;97984.47;15271213;19;20744;-54
2023/02/23 15:59:22;;;;;;;30.63;25.33;;;;;;;10.37;100.00;97980.41;15264719;19;20578;-54
2023/02/23 16:04:51;;;;;;;28.58;21.67;;;;;;;10.32;100.00;97975.53;15264751;19;20499;-55
2023/02/23 16:10:30;;;;;;;25.75;21.25;;;;;;;10.28;100.00;97982.28;15265843;19;20045;-56
2023/02/23 16:15:57;;;;;;;27.95;22.05;;;;;;;10.22;100.00;97980.28;15267335;19;20034;-54
2023/02/23 16:21:26;;;;;;;27.10;21.85;;;;;;;10.11;100.00;97986.00;15268779;19;20545;-53
2023/02/23 16:27:03;;;;;;;25.27;21.00;;;;;;;9.99;100.00;97989.03;15265987;19;20010;-53
2023/02/23 16:32:37;;;;;;;21.45;15.68;;;;;;;9.87;100.00;97985.81;15262012;19;20019;-54
2023/02/23 16:38:09;;;;;;;14.95;11.45;;;;;;;9.76;100.00;97979.94;15261760;19;20025;-54
2023/02/23 16:43:38;;;;;;;11.80;9.45;;;;;;;9.62;100.00;97970.66;15263513;19;20014;-52
2023/02/23 16:49:08;;;;;;;10.07;8.45;;;;;;;9.56;100.00;97964.97;15267193;19;20025;-53
2023/02/23 16:54:33;;;;;;;10.20;8.18;;;;;;;9.54;100.00;97966.13;15267801;19;20014;-53
2023/02/23 17:00:13;;;;;;;10.57;8.18;;;;;;;9.49;100.00;97972.00;14756094;19;10000561;-50
2023/02/23 17:05:38;;;;;;;11.80;9.32;;;;;;;9.50;100.00;97968.31;15259768;19;20029;-55
2023/02/23 17:11:02;;;;;;;13.68;9.50;;;;;;;9.50;100.00;97968.31;15263333;19;20018;-51
2023/02/23 17:16:30;;;;;;;11.05;9.30;;;;;;;9.50;100.00;97967.47;15263882;19;21116;-51
2023/02/23 17:21:56;;;;;;;11.50;8.77;;;;;;;9.48;100.00;97964.94;15264012;19;20602;-49
2023/02/23 17:27:26;;;;;;;9.95;8.70;;;;;;;9.49;100.00;97974.69;15261594;19;20018;-55
2023/02/23 17:32:56;;;;;;;11.97;9.70;;;;;;;9.52;100.00;97981.59;15265176;19;20097;-51
2023/02/23 17:38:21;;;;;;;12.77;9.73;;;;;;;9.53;100.00;97985.94;15260228;19;20014;-49
2023/02/23 17:43:47;;;;;;;11.98;10.18;;;;;;;9.53;100.00;97984.13;15262265;19;20029;-52
2023/02/23 17:49:15;;;;;;;19.30;14.48;;;;;;;9.53;100.00;97983.25;15271090;19;20029;-50
2023/02/23 17:54:39;;;;;;;18.70;15.43;;;;;;;9.52;100.00;97986.97;15278738;19;20018;-49
2023/02/23 18:00:05;;;;;;;17.67;13.90;;;;;;;9.50;100.00;97989.81;15280489;19;20022;-49
2023/02/23 18:05:33;;;;;;;16.65;12.75;;;;;;;9.47;100.00;97992.81;15278497;19;20535;-52
2023/02/23 18:11:00;;;;;;;15.50;12.20;;;;;;;9.47;100.00;97994.69;15271121;19;20078;-56
2023/02/23 18:16:24;;;;;;;15.40;12.82;;;;;;;9.45;100.00;97994.84;15280818;19;20019;-51
2023/02/23 18:21:54;;;;;;;16.33;12.85;;;;;;;9.41;100.00;97996.19;15276267;19;20029;-51
2023/02/23 18:27:19;;;;;;;14.55;12.80;;;;;;;9.39;100.00;97995.50;15275836;19;20033;-56
2023/02/23 18:32:44;;;;;;;16.35;12.65;;;;;;;9.39;100.00;97996.34;15283966;19;20015;-55
2023/02/23 18:38:15;;;;;;;15.43;12.27;;;;;;;9.38;100.00;97991.13;15280236;19;20039;-57
2023/02/23 18:43:40;;;;;;;16.88;14.15;;;;;;;9.36;100.00;97988.63;15275745;19;20029;-56
2023/02/23 18:49:08;;;;;;;19.15;14.68;;;;;;;9.34;100.00;97982.56;15280513;19;20014;-51
2023/02/23 18:54:40;;;;;;;16.80;14.00;;;;;;;9.34;100.00;97981.72;15277760;19;20471;-53
2023/02/23 19:00:12;;;;;;;17.60;14.77;;;;;;;9.33;100.00;97985.41;15282968;19;20018;-53
2023/02/23 19:05:40;;;;;;;18.65;13.90;;;;;;;9.31;100.00;97990.94;15283923;19;20010;-55
2023/02/23 19:11:12;;;;;;;17.88;15.10;;;;;;;9.31;100.00;97984.75;15291142;19;20042;-55
2023/02/23 19:16:39;;;;;;;17.13;14.18;;;;;;;9.28;100.00;97983.22;15327771;19;20023;-58
2023/02/23 19:22:04;;;;;;;18.15;14.65;;;;;;;9.28;100.00;97987.75;15284273;19;20019;-56
2023/02/23 19:27:33;;;;;;;17.42;14.52;;;;;;;9.27;100.00;97978.84;15267985;19;20022;-54
2023/02/23 19:32:57;;;;;;;16.40;13.88;;;;;;;9.25;100.00;97986.22;15273633;19;20759;-54
2023/02/23 19:38:29;;;;;;;17.90;14.13;;;;;;;9.25;100.00;97975.47;15252258;19;20018;-51
2023/02/23 19:43:57;;;;;;;17.43;14.40;;;;;;;9.25;100.00;97987.06;15271444;19;20611;-48
2023/02/23 19:49:24;;;;;;;18.95;14.90;;;;;;;9.25;100.00;97981.69;15269170;19;20018;-53
2023/02/23 19:54:49;;;;;;;13.48;11.25;;;;;;;9.06;100.00;97998.91;15267929;19;20022;-50
2023/02/23 20:00:19;;;;;;;14.13;11.52;;;;;;;9.01;100.00;98001.28;15271381;19;20023;-48
2023/02/23 20:05:43;;;;;;;13.15;10.68;;;;;;;8.88;100.00;98001.69;15270798;19;20027;-51
2023/02/23 20:11:09;;;;;;;13.65;9.88;;;;;;;8.85;100.00;97990.44;15271071;19;20047;-51
2023/02/23 20:16:36;;;;;;;12.05;9.82;;;;;;;8.82;100.00;97983.56;15264230;19;20022;-53
2023/02/23 20:22:01;;;;;;;13.63;10.00;;;;;;;8.72;100.00;97991.72;15268034;19;20026;-49
2023/02/23 20:27:28;;;;;;;14.18;10.60;;;;;;;8.74;100.00;97988.91;15262484;19;20022;-54
2023/02/23 20:32:56;;;;;;;13.75;11.13;;;;;;;8.54;100.00;97999.03;15270087;19;20029;-53
2023/02/23 20:38:27;;;;;;;16.13;12.52;;;;;;;8.42;100.00;98014.50;15262096;19;20026;-52
2023/02/23 20:43:51;;;;;;;16.33;12.33;;;;;;;8.32;100.00;98009.25;15269555;19;20010;-50
2023/02/23 20:49:21;;;;;;;16.25;12.70;;;;;;;8.28;100.00;98019.47;15261505;19;20017;-54
2023/02/23 20:54:46;;;;;;;17.35;13.45;;;;;;;8.26;100.00;98013.41;15269117;19;20016;-51
2023/02/23 21:00:19;;;;;;;18.23;13.18;;;;;;;8.19;100.00;98023.06;15297023;19;20483;-51
2023/02/23 21:05:47;;;;;;;15.75;12.98;;;;;;;8.10;100.00;98024.00;15267243;19;20081;-50
2023/02/23 21:11:13;;;;;;;15.05;11.90;;;;;;;8.04;100.00;98033.53;15267980;19;20038;-49
2023/02/23 21:16:45;;;;;;;13.80;11.65;;;;;;;7.97;100.00;98041.34;15266897;19;20020;-50
2023/02/23 21:22:15;;;;;;;12.10;10.48;;;;;;;7.91;100.00;98047.34;15260535;19;20025;-49
2023/02/23 21:27:41;;;;;;;12.57;10.70;;;;;;;7.86;100.00;98041.56;15274709;19;20022;-48
2023/02/23 21:33:06;;;;;;;11.98;10.77;;;;;;;7.83;100.00;98041.88;15280695;19;20021;-54
2023/02/23 21:38:40;;;;;;;11.15;9.82;;;;;;;7.78;100.00;98052.22;15274171;19;20021;-52
2023/02/23 21:44:07;;;;;;;10.50;9.40;;;;;;;7.70;100.00;98050.31;15277225;19;20021;-51
2023/02/23 21:49:31;;;;;;;10.20;9.10;;;;;;;7.67;100.00;98046.09;15275382;19;20015;-50
2023/02/23 21:54:58;;;;;;;10.32;9.30;;;;;;;7.65;100.00;98029.31;15272510;19;20026;-52
2023/02/23 22:00:38;;;;;;;10.17;9.03;;;;;;;7.65;100.00;98037.34;15281032;19;20022;-52
2023/02/23 22:06:03;;;;;;;12.30;11.00;;;;;;;7.60;100.00;98042.31;15275704;19;20024;-49
2023/02/23 22:11:35;;;;;;;14.07;12.57;;;;;;;7.49;100.00;98055.94;15275131;19;20018;-49
2023/02/23 22:17:02;;;;;;;15.32;13.73;;;;;;;7.42;100.00;98058.38;15277513;19;20018;-51
2023/02/23 22:22:27;;;;;;;16.25;13.38;;;;;;;7.33;100.00;98064.63;15279655;19;20021;-55
2023/02/23 22:27:54;;;;;;;14.68;12.90;;;;;;;7.25;100.00;98060.88;15273071;19;20011;-55
2023/02/23 22:33:20;;;;;;;14.45;12.85;;;;;;;7.23;100.00;98054.00;15280550;19;20372;-52
2023/02/23 22:38:51;;;;;;;16.50;14.60;;;;;;;7.21;100.00;98056.81;15271254;19;20487;-50
2023/02/23 22:44:21;;;;;;;23.40;17.83;;;;;;;7.16;100.00;98058.25;15273485;19;20101;-51
2023/02/23 22:49:46;;;;;;;19.77;17.60;;;;;;;7.14;100.00;98068.25;15275105;19;20104;-51
2023/02/23 22:55:12;;;;;;;18.13;16.23;;;;;;;7.09;100.00;98058.84;15275093;19;20463;-53
2023/02/23 23:00:39;;;;;;;20.60;18.42;;;;;;;7.09;100.00;98058.84;15271004;19;20035;-50
2023/02/23 23:06:04;;;;;;;22.65;19.90;;;;;;;7.07;100.00;98062.66;15272187;19;20420;-52
2023/02/23 23:11:30;;;;;;;24.20;20.73;;;;;;;7.04;100.00;98071.81;15272109;19;20018;-52
2023/02/23 23:16:58;;;;;;;28.75;21.23;;;;;;;7.00;100.00;98064.25;15269642;19;20297;-52
2023/02/23 23:22:24;;;;;;;27.40;22.20;;;;;;;6.93;100.00;98072.00;15272531;19;20188;-50
2023/02/23 23:27:51;;;;;;;22.85;18.60;;;;;;;6.85;100.00;98072.75;15273879;19;20014;-51
2023/02/23 23:33:18;;;;;;;24.60;19.88;;;;;;;6.85;100.00;98066.56;15271679;19;20010;-50
2023/02/23 23:38:49;;;;;;;24.17;19.80;;;;;;;6.81;100.00;98066.00;15272062;19;20018;-48
2023/02/23 23:44:15;;;;;;;23.67;19.47;;;;;;;6.81;100.00;98067.84;15273122;19;20018;-49
2023/02/23 23:49:45;;;;;;;27.88;20.55;;;;;;;6.81;100.00;98065.16;15276400;19;20082;-50
2023/02/23 23:55:10;;;;;;;27.98;21.98;;;;;;;6.76;100.00;98057.56;15273627;19;20025;-48
